Lockridge, Iowa
Current Conditions -  °F | °C
As of 2:55 AM on Saturday 25 Oct 2014 (Local Time) from KMPZ Reporting Station
Moderate Fog Moderate Fog  
Wind Chill: 48°   Ceiling: 100
Heat Index: 49°   Visibility: 0.25mi
Dew Point: 49°   Wind: 5mph
Humidity: 100%   Direction: 260°W
Pressure: 29.96"   Gusts: NA
Location:  40.99°N, 91.75°W
Report Text: KMPZ 250755Z AUTO 26004KT 1/4SM FG OVC001 10/10 A2996 RMK AO2 T00960096
Loading
Personal Weather Stations






























Interactive Weather Map
Tropical Storm Tracking
New forecast layout! Learn more

10-Day Weather Forecast

Advertisements
Track Severe Weather on mobile